createdAt,value
2016-10-02T00:00:43.958Z,0
2016-10-02T00:01:44.645Z,0
2016-10-02T00:02:45.352Z,0
2016-10-02T00:03:46.058Z,0
2016-10-02T00:04:46.735Z,0
2016-10-02T00:05:47.423Z,0
2016-10-02T00:06:48.129Z,0
2016-10-02T00:07:48.813Z,0
2016-10-02T00:08:49.484Z,0
2016-10-02T00:09:50.156Z,0
2016-10-02T00:10:50.821Z,0
2016-10-02T00:11:51.507Z,0
2016-10-02T00:12:52.208Z,0
2016-10-02T00:13:52.900Z,0
2016-10-02T00:14:53.582Z,0
2016-10-02T00:15:54.246Z,0
2016-10-02T00:16:54.921Z,0
2016-10-02T00:17:55.590Z,0
2016-10-02T00:18:56.346Z,0
2016-10-02T00:19:57.032Z,0
2016-10-02T00:20:57.716Z,0
2016-10-02T00:21:58.387Z,0
2016-10-02T00:22:59.056Z,0
2016-10-02T00:23:59.729Z,0
2016-10-02T00:25:00.406Z,0
2016-10-02T00:26:01.079Z,0
2016-10-02T00:27:01.787Z,0
2016-10-02T00:28:02.468Z,0
2016-10-02T00:29:03.142Z,0
2016-10-02T00:30:03.813Z,0
2016-10-02T00:31:04.488Z,0
2016-10-02T00:32:05.159Z,0
2016-10-02T00:33:05.878Z,0
2016-10-02T00:34:06.559Z,0
2016-10-02T00:35:07.225Z,0
2016-10-02T00:36:07.902Z,0
2016-10-02T00:37:08.602Z,0
2016-10-02T00:38:09.312Z,0
2016-10-02T00:39:09.997Z,0
2016-10-02T00:40:10.669Z,0
2016-10-02T00:41:11.340Z,0
2016-10-02T00:42:12.015Z,0
2016-10-02T00:43:12.692Z,0
2016-10-02T00:44:13.380Z,0
2016-10-02T00:45:14.068Z,0
2016-10-02T00:46:14.748Z,0
2016-10-02T00:47:15.455Z,0
2016-10-02T00:48:16.142Z,0
2016-10-02T00:49:16.821Z,0
2016-10-02T00:50:17.496Z,0
2016-10-02T00:51:18.249Z,0
2016-10-02T00:52:18.915Z,0
2016-10-02T00:53:19.608Z,0
2016-10-02T00:54:20.334Z,0
2016-10-02T00:55:21.010Z,0
2016-10-02T00:56:21.679Z,0
2016-10-02T00:57:22.358Z,0
2016-10-02T00:58:23.038Z,0
2016-10-02T00:59:23.744Z,0
2016-10-02T01:00:24.422Z,0
2016-10-02T01:01:25.142Z,0
2016-10-02T01:02:25.813Z,0
2016-10-02T01:03:26.489Z,0
2016-10-02T01:04:27.168Z,0
2016-10-02T01:05:27.841Z,0
2016-10-02T01:06:28.507Z,0
2016-10-02T01:07:35.832Z,0
2016-10-02T01:08:36.515Z,0
2016-10-02T01:09:37.186Z,0
2016-10-02T01:10:37.857Z,0
2016-10-02T01:11:38.529Z,0
2016-10-02T01:12:39.200Z,0
2016-10-02T01:13:39.871Z,0
2016-10-02T01:14:40.577Z,0
2016-10-02T01:15:41.268Z,0
2016-10-02T01:16:41.943Z,0
2016-10-02T01:17:42.615Z,0
2016-10-02T01:18:43.303Z,0
2016-10-02T01:19:44.004Z,0
2016-10-02T01:20:44.684Z,0
2016-10-02T01:21:45.393Z,0
2016-10-02T01:22:46.073Z,0
2016-10-02T01:23:46.748Z,0
2016-10-02T01:24:47.435Z,0
2016-10-02T01:25:48.123Z,0
2016-10-02T01:26:48.797Z,0
2016-10-02T01:27:49.470Z,0
2016-10-02T01:28:50.175Z,0
2016-10-02T01:29:50.852Z,0
2016-10-02T01:30:51.567Z,0
2016-10-02T01:31:52.246Z,0
2016-10-02T01:32:52.932Z,0
2016-10-02T01:33:53.623Z,0
2016-10-02T01:34:54.298Z,0
2016-10-02T01:36:55.658Z,0
2016-10-02T01:37:56.333Z,0
2016-10-02T01:38:57.053Z,0
2016-10-02T01:39:57.722Z,0
2016-10-02T01:40:58.399Z,0
2016-10-02T01:41:59.116Z,0
2016-10-02T01:42:59.796Z,0
2016-10-02T01:44:00.484Z,0
2016-10-02T01:45:01.171Z,0
2016-10-02T01:46:01.865Z,0
2016-10-02T01:47:02.538Z,0
2016-10-02T01:48:03.213Z,0
2016-10-02T01:49:03.890Z,0
2016-10-02T01:50:04.558Z,0
2016-10-02T01:51:05.234Z,0
2016-10-02T01:52:05.905Z,0
2016-10-02T01:53:06.570Z,0
2016-10-02T01:54:07.241Z,0
2016-10-02T01:55:07.918Z,0
2016-10-02T01:56:08.588Z,0
2016-10-02T01:57:09.265Z,0
2016-10-02T01:58:09.979Z,0
2016-10-02T01:59:10.661Z,0
2016-10-02T02:00:11.333Z,0
2016-10-02T02:01:12.005Z,0
2016-10-02T02:02:12.679Z,0
2016-10-02T02:03:13.347Z,0
2016-10-02T02:04:14.061Z,0
2016-10-02T02:05:14.740Z,0
2016-10-02T02:06:15.409Z,0
2016-10-02T02:07:16.080Z,0
2016-10-02T02:08:16.756Z,0
2016-10-02T02:09:17.442Z,0
2016-10-02T02:10:18.118Z,0
2016-10-02T02:11:18.784Z,0
2016-10-02T02:12:19.475Z,0
2016-10-02T02:13:20.188Z,0
2016-10-02T02:14:20.893Z,0
2016-10-02T02:15:21.575Z,0
2016-10-02T02:16:22.249Z,0
2016-10-02T02:17:22.923Z,0
2016-10-02T02:18:23.597Z,0
2016-10-02T02:19:24.294Z,0
2016-10-02T02:20:24.980Z,0
2016-10-02T02:21:25.666Z,0
2016-10-02T02:22:26.351Z,0
2016-10-02T02:23:27.032Z,0
2016-10-02T02:24:27.709Z,0
2016-10-02T02:25:28.380Z,0
2016-10-02T02:26:29.062Z,0
2016-10-02T02:27:29.746Z,0
2016-10-02T02:28:30.430Z,0
2016-10-02T02:29:31.104Z,0
2016-10-02T02:30:31.817Z,0
2016-10-02T02:31:32.510Z,0
2016-10-02T02:32:33.189Z,0
2016-10-02T02:33:33.866Z,0
2016-10-02T02:34:34.539Z,0
2016-10-02T02:35:35.214Z,0
2016-10-02T02:36:35.895Z,0
2016-10-02T02:37:36.575Z,0
2016-10-02T02:38:37.260Z,0
2016-10-02T02:39:37.943Z,0
2016-10-02T02:40:38.649Z,0
2016-10-02T02:41:39.331Z,0
2016-10-02T02:42:40.013Z,0
2016-10-02T02:43:40.693Z,0
2016-10-02T02:44:41.364Z,0
2016-10-02T02:45:42.040Z,0
2016-10-02T02:46:42.713Z,0
2016-10-02T02:47:43.383Z,0
2016-10-02T02:48:44.058Z,0
2016-10-02T02:49:44.729Z,0
2016-10-02T02:50:45.404Z,0
2016-10-02T02:51:46.073Z,0
2016-10-02T02:52:46.764Z,0
2016-10-02T02:53:47.450Z,0
2016-10-02T02:54:48.124Z,0
2016-10-02T02:55:48.813Z,0
2016-10-02T02:56:49.510Z,0
2016-10-02T02:57:50.190Z,0
2016-10-02T02:58:50.869Z,0
2016-10-02T02:59:51.555Z,0
2016-10-02T03:00:52.241Z,0
2016-10-02T03:01:52.926Z,0
2016-10-02T03:02:53.620Z,0
2016-10-02T03:03:54.308Z,0
2016-10-02T03:04:54.994Z,0
2016-10-02T03:05:55.670Z,0
2016-10-02T03:06:56.342Z,0
2016-10-02T03:07:57.016Z,0
2016-10-02T03:08:57.687Z,0
2016-10-02T03:09:58.358Z,0
2016-10-02T03:10:59.043Z,0
2016-10-02T03:11:59.723Z,0
2016-10-02T03:13:00.399Z,0
2016-10-02T03:14:01.079Z,0
2016-10-02T03:15:01.771Z,0
2016-10-02T03:16:02.456Z,0
2016-10-02T03:17:03.127Z,0
2016-10-02T03:18:03.822Z,0
2016-10-02T03:19:04.503Z,0
2016-10-02T03:20:05.203Z,0
2016-10-02T03:21:05.896Z,0
2016-10-02T03:22:06.574Z,0
2016-10-02T03:23:07.273Z,0
2016-10-02T03:24:07.963Z,0
2016-10-02T03:25:08.638Z,0
2016-10-02T03:26:09.315Z,0
2016-10-02T03:27:09.991Z,0
2016-10-02T03:28:10.707Z,0
2016-10-02T03:29:11.383Z,0
2016-10-02T03:30:12.052Z,0
2016-10-02T03:31:12.728Z,0
2016-10-02T03:32:13.400Z,0
2016-10-02T03:33:14.074Z,0
2016-10-02T03:34:14.749Z,0
2016-10-02T03:35:15.428Z,0
2016-10-02T03:36:16.111Z,0
2016-10-02T03:37:16.764Z,0
2016-10-02T03:38:17.434Z,0
2016-10-02T03:39:18.104Z,0
2016-10-02T03:40:18.779Z,0
2016-10-02T03:41:19.457Z,0
2016-10-02T03:42:20.135Z,0
2016-10-02T03:43:20.802Z,0
2016-10-02T03:44:21.509Z,0
2016-10-02T03:45:22.192Z,0
2016-10-02T03:46:22.874Z,0
2016-10-02T03:47:23.566Z,0
2016-10-02T03:48:24.240Z,0
2016-10-02T03:49:24.911Z,0
2016-10-02T03:50:25.589Z,0
2016-10-02T03:51:26.287Z,0
2016-10-02T03:52:26.951Z,0
2016-10-02T03:53:27.655Z,0
2016-10-02T03:54:28.326Z,0
2016-10-02T03:55:29.018Z,0
2016-10-02T03:56:29.698Z,0
2016-10-02T03:57:30.372Z,0
2016-10-02T03:58:31.066Z,0
2016-10-02T03:59:31.740Z,0
2016-10-02T04:00:32.411Z,0
2016-10-02T04:01:33.087Z,0
2016-10-02T04:02:33.778Z,0
2016-10-02T04:03:34.453Z,0
2016-10-02T04:04:35.161Z,0
2016-10-02T04:05:35.845Z,0
2016-10-02T04:06:36.519Z,0
2016-10-02T04:07:37.214Z,0
2016-10-02T04:08:37.888Z,0
2016-10-02T04:09:38.569Z,0
2016-10-02T04:10:39.340Z,0
2016-10-02T04:11:40.280Z,0
2016-10-02T04:12:41.763Z,0
2016-10-02T04:13:42.386Z,0
2016-10-02T04:14:43.060Z,0
2016-10-02T04:15:43.844Z,0
2016-10-02T04:16:44.525Z,0
2016-10-02T04:17:45.208Z,0
2016-10-02T04:18:45.895Z,0
2016-10-02T04:19:46.619Z,0
2016-10-02T04:20:47.311Z,0
2016-10-02T04:21:47.983Z,0
2016-10-02T04:22:48.681Z,0
2016-10-02T04:23:49.377Z,0
2016-10-02T04:24:50.061Z,0
2016-10-02T04:25:50.740Z,0
2016-10-02T04:26:51.424Z,0
2016-10-02T04:27:52.161Z,0
2016-10-02T04:28:52.860Z,0
2016-10-02T04:29:53.541Z,0
2016-10-02T04:30:54.218Z,0
2016-10-02T04:31:54.888Z,0
2016-10-02T04:32:55.564Z,0
2016-10-02T04:33:56.254Z,0
2016-10-02T04:34:56.942Z,0
2016-10-02T04:35:57.615Z,0
2016-10-02T04:36:58.296Z,0
2016-10-02T04:37:58.977Z,0
2016-10-02T04:38:59.653Z,0
2016-10-02T04:40:00.335Z,0
2016-10-02T04:41:01.042Z,0
2016-10-02T04:42:01.719Z,0
2016-10-02T04:43:02.404Z,0
2016-10-02T04:44:03.204Z,0
2016-10-02T04:45:03.876Z,0
2016-10-02T04:46:04.563Z,0
2016-10-02T04:47:05.237Z,0
2016-10-02T04:48:05.938Z,0
2016-10-02T04:49:06.608Z,0
2016-10-02T04:50:07.286Z,0
2016-10-02T04:51:07.962Z,0
2016-10-02T04:52:08.632Z,0
2016-10-02T04:53:09.320Z,0
2016-10-02T04:54:09.999Z,0
2016-10-02T04:55:10.666Z,0
2016-10-02T04:56:11.342Z,0
2016-10-02T04:57:12.014Z,0
2016-10-02T04:58:13.721Z,0
2016-10-02T04:59:14.404Z,0
2016-10-02T05:00:15.087Z,0
2016-10-02T05:01:15.757Z,0
2016-10-02T05:02:16.432Z,0
2016-10-02T05:03:17.102Z,0
2016-10-02T05:04:17.779Z,0
2016-10-02T05:05:18.448Z,0
2016-10-02T05:06:19.136Z,0
2016-10-02T05:07:19.837Z,0
2016-10-02T05:08:20.622Z,0
2016-10-02T05:09:21.655Z,0
2016-10-02T05:10:22.377Z,0
2016-10-02T05:11:23.075Z,0
2016-10-02T05:12:23.785Z,0
2016-10-02T05:13:24.472Z,0
2016-10-02T05:14:25.588Z,0
2016-10-02T05:15:26.633Z,0
2016-10-02T05:16:27.789Z,0
2016-10-02T05:17:28.856Z,0
2016-10-02T05:18:29.621Z,0
2016-10-02T05:19:30.400Z,0
2016-10-02T05:20:31.122Z,0
2016-10-02T05:21:32.066Z,0
2016-10-02T05:22:32.817Z,0
2016-10-02T05:23:33.548Z,0
2016-10-02T05:24:34.253Z,0
2016-10-02T05:25:34.945Z,5
2016-10-02T05:26:35.679Z,5
2016-10-02T05:27:36.392Z,5
2016-10-02T05:28:37.139Z,5
2016-10-02T05:29:37.853Z,5
2016-10-02T05:30:38.640Z,5
2016-10-02T05:31:39.355Z,10
2016-10-02T05:32:40.079Z,10
2016-10-02T05:33:40.825Z,10
2016-10-02T05:34:41.501Z,10
2016-10-02T05:35:42.174Z,10
2016-10-02T05:36:42.854Z,15
2016-10-02T05:37:43.526Z,15
2016-10-02T05:38:44.204Z,15
2016-10-02T05:39:44.880Z,15
2016-10-02T05:40:45.561Z,15
2016-10-02T05:41:46.251Z,15
2016-10-02T05:42:46.926Z,20
2016-10-02T05:43:47.600Z,20
2016-10-02T05:44:48.277Z,25
2016-10-02T05:45:48.946Z,30
2016-10-02T05:46:49.625Z,25
2016-10-02T05:47:50.300Z,20
2016-10-02T05:48:50.980Z,20
2016-10-02T05:49:51.672Z,20
2016-10-02T05:50:52.355Z,20
2016-10-02T05:51:53.098Z,20
2016-10-02T05:52:53.780Z,25
2016-10-02T05:53:54.462Z,30
2016-10-02T05:54:55.157Z,30
2016-10-02T05:55:55.832Z,35
2016-10-02T05:56:56.513Z,35
2016-10-02T05:57:57.180Z,40
2016-10-02T05:58:57.853Z,40
2016-10-02T05:59:58.531Z,40
2016-10-02T06:00:59.205Z,40
2016-10-02T06:01:59.893Z,40
2016-10-02T06:03:00.590Z,45
2016-10-02T06:04:01.266Z,40
2016-10-02T06:05:01.937Z,45
2016-10-02T06:06:02.612Z,50
2016-10-02T06:07:03.287Z,50
2016-10-02T06:08:04.008Z,45
2016-10-02T06:09:04.724Z,50
2016-10-02T06:10:05.395Z,55
2016-10-02T06:11:06.066Z,60
2016-10-02T06:12:06.757Z,70
2016-10-02T06:13:08.438Z,65
2016-10-02T06:14:09.116Z,65
2016-10-02T06:15:09.835Z,60
2016-10-02T06:16:10.516Z,65
2016-10-02T06:17:11.198Z,60
2016-10-02T06:18:11.874Z,60
2016-10-02T06:19:12.550Z,60
2016-10-02T06:20:13.223Z,60
2016-10-02T06:21:13.918Z,60
2016-10-02T06:22:14.593Z,70
2016-10-02T06:23:15.268Z,80
2016-10-02T06:24:15.956Z,80
2016-10-02T06:25:16.629Z,100
2016-10-02T06:26:17.306Z,95
2016-10-02T06:27:17.980Z,115
2016-10-02T06:28:18.663Z,125
2016-10-02T06:29:19.350Z,160
2016-10-02T06:30:20.048Z,155
2016-10-02T06:31:20.744Z,140
2016-10-02T06:32:21.431Z,175
2016-10-02T06:33:22.105Z,175
2016-10-02T06:34:22.780Z,180
2016-10-02T06:35:23.456Z,185
2016-10-02T06:36:24.127Z,250
2016-10-02T06:37:24.809Z,360
2016-10-02T06:38:25.518Z,450
2016-10-02T06:39:26.211Z,415
2016-10-02T06:40:26.891Z,205
2016-10-02T06:41:27.591Z,270
2016-10-02T06:42:28.266Z,505
2016-10-02T06:43:28.938Z,520
2016-10-02T06:44:29.614Z,525
2016-10-02T06:45:30.326Z,220
2016-10-02T06:46:31.003Z,460
2016-10-02T06:47:31.681Z,525
2016-10-02T06:48:32.359Z,655
2016-10-02T06:49:33.045Z,665
2016-10-02T06:50:33.748Z,670
2016-10-02T06:51:34.426Z,575
2016-10-02T06:52:35.104Z,690
2016-10-02T06:53:35.791Z,715
2016-10-02T06:54:36.485Z,715
2016-10-02T06:55:37.170Z,665
2016-10-02T06:56:37.877Z,750
2016-10-02T06:57:38.557Z,640
2016-10-02T06:58:39.269Z,695
2016-10-02T06:59:39.945Z,685
2016-10-02T07:00:40.630Z,495
2016-10-02T07:01:41.320Z,800
2016-10-02T07:02:42.015Z,740
2016-10-02T07:03:42.697Z,580
2016-10-02T07:04:43.388Z,205
2016-10-02T07:05:44.089Z,760
2016-10-02T07:06:44.772Z,695
2016-10-02T07:07:45.475Z,765
2016-10-02T07:08:46.160Z,800
2016-10-02T07:09:46.867Z,845
2016-10-02T07:10:47.579Z,820
2016-10-02T07:11:48.279Z,650
2016-10-02T07:12:48.980Z,870
2016-10-02T07:13:49.693Z,910
2016-10-02T07:14:50.386Z,900
2016-10-02T07:15:51.081Z,950
2016-10-02T07:16:51.793Z,1030
2016-10-02T07:17:52.489Z,1030
2016-10-02T07:18:53.188Z,935
2016-10-02T07:19:53.876Z,1045
2016-10-02T07:20:54.563Z,995
2016-10-02T07:21:55.256Z,830
2016-10-02T07:22:55.941Z,975
2016-10-02T07:23:56.635Z,930
2016-10-02T07:24:57.324Z,920
2016-10-02T07:25:58.005Z,975
2016-10-02T07:26:58.701Z,960
2016-10-02T07:27:59.390Z,950
2016-10-02T07:29:00.079Z,990
2016-10-02T07:30:00.769Z,960
2016-10-02T07:31:01.463Z,855
2016-10-02T07:32:02.173Z,595
2016-10-02T07:33:02.860Z,735
2016-10-02T07:34:03.555Z,905
2016-10-02T07:35:04.253Z,640
2016-10-02T07:36:04.961Z,600
2016-10-02T07:37:05.658Z,725
2016-10-02T07:38:06.358Z,680
2016-10-02T07:39:07.041Z,390
2016-10-02T07:40:07.742Z,385
2016-10-02T07:41:08.422Z,365
2016-10-02T07:42:09.109Z,430
2016-10-02T07:43:09.819Z,565
2016-10-02T07:44:10.509Z,455
2016-10-02T07:45:11.210Z,320
2016-10-02T07:46:11.887Z,285
2016-10-02T07:47:12.605Z,230
2016-10-02T07:48:13.293Z,265
2016-10-02T07:49:14.003Z,220
2016-10-02T07:50:14.684Z,215
2016-10-02T07:51:15.379Z,240
2016-10-02T07:52:16.065Z,195
2016-10-02T07:53:16.755Z,205
2016-10-02T07:54:17.446Z,220
2016-10-02T07:55:18.133Z,495
2016-10-02T07:56:18.821Z,910
2016-10-02T07:57:19.515Z,835
2016-10-02T07:58:20.211Z,820
2016-10-02T07:59:20.889Z,815
2016-10-02T08:00:21.607Z,825
2016-10-02T08:01:22.283Z,870
2016-10-02T08:02:22.980Z,955
2016-10-02T08:03:23.668Z,1065
2016-10-02T08:04:24.375Z,1185
2016-10-02T08:05:25.072Z,1300
2016-10-02T08:06:25.757Z,1360
2016-10-02T08:07:26.463Z,1405
2016-10-02T08:08:27.176Z,1365
2016-10-02T08:09:27.864Z,1365
2016-10-02T08:10:28.571Z,1385
2016-10-02T08:11:29.292Z,1400
2016-10-02T08:12:29.993Z,1415
2016-10-02T08:13:30.686Z,1435
2016-10-02T08:14:31.391Z,1430
2016-10-02T08:15:32.088Z,1470
2016-10-02T08:16:32.790Z,1440
2016-10-02T08:17:33.483Z,1415
2016-10-02T08:18:34.176Z,1455
2016-10-02T08:19:34.876Z,1465
2016-10-02T08:20:35.575Z,1435
2016-10-02T08:21:36.295Z,1405
2016-10-02T08:22:37.010Z,1370
2016-10-02T08:23:37.702Z,1340
2016-10-02T08:24:38.397Z,1320
2016-10-02T08:25:39.105Z,1325
2016-10-02T08:26:39.804Z,1340
2016-10-02T08:27:40.500Z,1375
2016-10-02T08:28:41.195Z,1400
2016-10-02T08:29:41.901Z,1400
2016-10-02T08:30:42.618Z,1405
2016-10-02T08:31:43.306Z,1430
2016-10-02T08:32:44.006Z,1470
2016-10-02T08:33:44.703Z,1505
2016-10-02T08:34:45.409Z,1500
2016-10-02T08:35:46.129Z,1465
2016-10-02T08:36:46.841Z,1480
2016-10-02T08:37:47.530Z,1485
2016-10-02T08:38:48.242Z,1455
2016-10-02T08:39:48.943Z,1465
2016-10-02T08:40:49.642Z,1475
2016-10-02T08:41:50.321Z,1510
2016-10-02T08:42:51.012Z,1565
2016-10-02T08:43:51.717Z,1595
2016-10-02T08:44:52.442Z,1600
2016-10-02T08:45:53.156Z,1595
2016-10-02T08:46:53.867Z,1585
2016-10-02T08:47:54.559Z,1550
2016-10-02T08:48:55.259Z,1210
2016-10-02T08:49:55.957Z,710
2016-10-02T08:50:56.651Z,665
2016-10-02T08:51:57.348Z,455
2016-10-02T08:52:58.039Z,520
2016-10-02T08:53:58.743Z,575
2016-10-02T08:54:59.453Z,235
2016-10-02T08:56:00.149Z,240
2016-10-02T08:57:00.825Z,235
2016-10-02T08:58:01.540Z,220
2016-10-02T08:59:02.258Z,215
2016-10-02T09:00:02.941Z,215
2016-10-02T09:01:03.683Z,210
2016-10-02T09:02:04.369Z,210
2016-10-02T09:03:05.060Z,205
2016-10-02T09:04:05.766Z,225
2016-10-02T09:05:06.456Z,235
2016-10-02T09:06:07.158Z,215
2016-10-02T09:07:07.852Z,235
2016-10-02T09:08:08.552Z,235
2016-10-02T09:09:09.233Z,210
2016-10-02T09:10:09.926Z,215
2016-10-02T09:11:10.604Z,215
2016-10-02T09:12:11.302Z,230
2016-10-02T09:13:12.004Z,220
2016-10-02T09:14:12.693Z,180
2016-10-02T09:15:13.398Z,190
2016-10-02T09:16:14.111Z,220
2016-10-02T09:17:14.787Z,195
2016-10-02T09:18:15.493Z,250
2016-10-02T09:19:16.232Z,230
2016-10-02T09:20:16.935Z,195
2016-10-02T09:21:17.651Z,210
2016-10-02T09:22:18.374Z,210
2016-10-02T09:23:19.079Z,230
2016-10-02T09:24:19.796Z,235
2016-10-02T09:25:20.496Z,230
2016-10-02T09:26:21.180Z,215
2016-10-02T09:27:21.895Z,205
2016-10-02T09:28:22.576Z,210
2016-10-02T09:29:23.291Z,220
2016-10-02T09:30:23.973Z,250
2016-10-02T09:31:24.670Z,235
2016-10-02T09:32:25.545Z,220
2016-10-02T09:33:26.078Z,235
2016-10-02T09:34:26.753Z,230
2016-10-02T09:35:27.467Z,230
2016-10-02T09:36:28.201Z,205
2016-10-02T09:37:28.913Z,220
2016-10-02T09:38:29.646Z,270
2016-10-02T09:39:30.376Z,270
2016-10-02T09:40:31.105Z,180
2016-10-02T09:41:31.828Z,185
2016-10-02T09:42:32.562Z,230
2016-10-02T09:43:33.272Z,225
2016-10-02T09:44:34.024Z,195
2016-10-02T09:45:34.756Z,230
2016-10-02T09:46:35.522Z,270
2016-10-02T09:47:36.277Z,220
2016-10-02T09:48:36.998Z,185
2016-10-02T09:49:37.812Z,250
2016-10-02T09:50:38.546Z,305
2016-10-02T09:51:39.344Z,260
2016-10-02T09:52:40.086Z,190
2016-10-02T09:53:40.845Z,160
2016-10-02T09:54:41.547Z,135
2016-10-02T09:55:42.253Z,170
2016-10-02T09:56:42.983Z,230
2016-10-02T09:57:43.711Z,205
2016-10-02T09:58:44.506Z,195
2016-10-02T09:59:45.325Z,220
2016-10-02T10:00:46.131Z,210
2016-10-02T10:01:46.928Z,235
2016-10-02T10:02:47.701Z,215
2016-10-02T10:03:48.513Z,235
2016-10-02T10:04:49.246Z,265
2016-10-02T10:05:49.989Z,340
2016-10-02T10:06:50.707Z,280
2016-10-02T10:07:51.492Z,270
2016-10-02T10:08:52.275Z,190
2016-10-02T10:09:53.172Z,155
2016-10-02T10:10:54.387Z,155
2016-10-02T10:11:55.660Z,175
2016-10-02T10:12:56.431Z,180
2016-10-02T10:13:57.131Z,175
2016-10-02T10:14:57.823Z,190
2016-10-02T10:15:58.524Z,200
2016-10-02T10:16:59.245Z,195
2016-10-02T10:18:00.051Z,165
2016-10-02T10:19:00.856Z,175
2016-10-02T10:20:01.743Z,200
2016-10-02T10:21:02.675Z,160
2016-10-02T10:22:03.412Z,145
2016-10-02T10:23:04.139Z,140
2016-10-02T10:24:04.898Z,165
2016-10-02T10:25:05.629Z,175
2016-10-02T10:26:06.413Z,160
2016-10-02T10:27:07.187Z,170
2016-10-02T10:28:07.906Z,145
2016-10-02T10:29:08.663Z,165
2016-10-02T10:30:09.377Z,215
2016-10-02T10:31:10.078Z,215
2016-10-02T10:32:10.775Z,190
2016-10-02T10:33:11.464Z,170
2016-10-02T10:34:12.180Z,180
2016-10-02T10:35:12.891Z,180
2016-10-02T10:36:13.564Z,165
2016-10-02T10:37:14.249Z,195
2016-10-02T10:38:14.960Z,210
2016-10-02T10:39:15.645Z,210
2016-10-02T10:40:16.359Z,185
2016-10-02T10:41:17.029Z,185
2016-10-02T10:42:17.704Z,180
2016-10-02T10:43:18.795Z,170
2016-10-02T10:44:19.469Z,165
2016-10-02T10:45:20.157Z,155
2016-10-02T10:46:20.852Z,155
2016-10-02T10:47:21.533Z,155
2016-10-02T10:48:22.212Z,190
2016-10-02T10:49:22.922Z,170
2016-10-02T10:50:23.602Z,145
2016-10-02T10:51:24.318Z,145
2016-10-02T10:52:25.002Z,195
2016-10-02T10:53:25.717Z,190
2016-10-02T10:54:26.395Z,185
2016-10-02T10:55:27.110Z,185
2016-10-02T10:56:27.809Z,170
2016-10-02T10:57:28.503Z,170
2016-10-02T10:58:29.180Z,215
2016-10-02T10:59:29.878Z,190
2016-10-02T11:00:30.572Z,175
2016-10-02T11:01:31.250Z,210
2016-10-02T11:02:31.930Z,240
2016-10-02T11:03:32.611Z,235
2016-10-02T11:04:33.293Z,215
2016-10-02T11:05:33.989Z,220
2016-10-02T11:06:34.677Z,245
2016-10-02T11:07:35.353Z,285
2016-10-02T11:08:36.270Z,305
2016-10-02T11:09:36.997Z,235
2016-10-02T11:10:37.717Z,185
2016-10-02T11:11:38.408Z,180
2016-10-02T11:12:39.187Z,200
2016-10-02T11:13:39.929Z,225
2016-10-02T11:14:40.612Z,260
2016-10-02T11:15:41.303Z,215
2016-10-02T11:16:41.995Z,215
2016-10-02T11:17:42.686Z,230
2016-10-02T11:18:43.382Z,225
2016-10-02T11:19:44.829Z,200
2016-10-02T11:20:45.554Z,190
2016-10-02T11:21:46.427Z,165
2016-10-02T11:22:50.090Z,155
2016-10-02T11:23:50.783Z,150
2016-10-02T11:24:51.560Z,185
2016-10-02T11:25:52.275Z,250
2016-10-02T11:26:52.999Z,280
2016-10-02T11:27:53.716Z,265
2016-10-02T11:28:54.427Z,255
2016-10-02T11:29:55.118Z,285
2016-10-02T11:30:55.792Z,310
2016-10-02T11:31:56.496Z,315
2016-10-02T11:32:57.805Z,255
2016-10-02T11:33:58.444Z,230
2016-10-02T11:34:59.138Z,230
2016-10-02T11:35:59.821Z,245
2016-10-02T11:37:00.531Z,265
2016-10-02T11:38:01.211Z,305
2016-10-02T11:39:01.925Z,285
2016-10-02T11:40:02.605Z,220
2016-10-02T11:41:03.338Z,180
2016-10-02T11:42:04.032Z,145
2016-10-02T11:43:04.731Z,145
2016-10-02T11:44:05.457Z,155
2016-10-02T11:45:06.169Z,160
2016-10-02T11:46:06.850Z,170
2016-10-02T11:47:07.564Z,185
2016-10-02T11:48:08.247Z,215
2016-10-02T11:49:08.966Z,205
2016-10-02T11:50:09.644Z,170
2016-10-02T11:51:10.367Z,165
2016-10-02T11:52:11.086Z,150
2016-10-02T11:53:11.783Z,155
2016-10-02T11:54:12.489Z,165
2016-10-02T11:55:13.180Z,170
2016-10-02T11:56:13.871Z,200
2016-10-02T11:57:14.555Z,220
2016-10-02T11:58:15.243Z,230
2016-10-02T11:59:15.927Z,185
2016-10-02T12:00:16.622Z,170
2016-10-02T12:01:17.313Z,170
2016-10-02T12:02:18.011Z,175
2016-10-02T12:03:18.709Z,170
2016-10-02T12:04:19.400Z,160
2016-10-02T12:05:20.100Z,160
2016-10-02T12:06:20.792Z,165
2016-10-02T12:07:21.506Z,170
2016-10-02T12:08:22.203Z,170
2016-10-02T12:09:22.891Z,185
2016-10-02T12:10:23.600Z,185
2016-10-02T12:11:24.280Z,190
2016-10-02T12:12:24.970Z,200
2016-10-02T12:13:25.655Z,205
2016-10-02T12:14:26.363Z,195
2016-10-02T12:15:27.072Z,175
2016-10-02T12:16:27.757Z,190
2016-10-02T12:17:28.462Z,180
2016-10-02T12:18:29.171Z,160
2016-10-02T12:19:29.880Z,160
2016-10-02T12:20:30.581Z,170
2016-10-02T12:21:31.257Z,195
2016-10-02T12:22:31.949Z,220
2016-10-02T12:23:32.674Z,205
2016-10-02T12:24:34.892Z,210
2016-10-02T12:25:37.390Z,245
2016-10-02T12:26:37.095Z,240
2016-10-02T12:27:37.776Z,215
2016-10-02T12:28:38.600Z,155
2016-10-02T12:29:39.349Z,165
2016-10-02T12:30:40.145Z,170
2016-10-02T12:31:41.100Z,200
2016-10-02T12:32:41.791Z,205
2016-10-02T12:33:42.534Z,175
2016-10-02T12:34:43.517Z,175
2016-10-02T12:35:44.236Z,170
2016-10-02T12:36:44.943Z,165
2016-10-02T12:37:45.669Z,185
2016-10-02T12:38:46.365Z,210
2016-10-02T12:39:47.075Z,205
2016-10-02T12:40:47.962Z,185
2016-10-02T12:41:48.616Z,210
2016-10-02T12:42:49.454Z,225
2016-10-02T12:43:50.161Z,210
2016-10-02T12:44:50.860Z,200
2016-10-02T12:45:51.571Z,195
2016-10-02T12:46:52.405Z,185
2016-10-02T12:47:53.101Z,175
2016-10-02T12:48:53.816Z,165
2016-10-02T12:49:54.514Z,155
2016-10-02T12:50:55.209Z,135
2016-10-02T12:51:55.938Z,115
2016-10-02T12:52:56.677Z,95
2016-10-02T12:53:57.447Z,90
2016-10-02T12:54:58.134Z,85
2016-10-02T12:55:58.829Z,80
2016-10-02T12:56:59.534Z,85
2016-10-02T12:58:00.237Z,90
2016-10-02T12:59:00.922Z,95
2016-10-02T13:00:01.958Z,95
2016-10-02T13:01:02.653Z,95
2016-10-02T13:02:03.360Z,95
2016-10-02T13:03:04.426Z,90
2016-10-02T13:04:05.230Z,90
2016-10-02T13:05:06.057Z,85
2016-10-02T13:06:07.491Z,75
2016-10-02T13:07:08.310Z,75
2016-10-02T13:08:08.867Z,70
2016-10-02T13:09:09.641Z,70
2016-10-02T13:10:10.338Z,65
2016-10-02T13:11:11.605Z,65
2016-10-02T13:12:12.863Z,60
2016-10-02T13:13:15.310Z,60
2016-10-02T13:14:16.170Z,55
2016-10-02T13:15:18.028Z,50
2016-10-02T13:16:18.883Z,45
2016-10-02T13:17:19.793Z,50
2016-10-02T13:18:20.957Z,60
2016-10-02T13:19:25.786Z,65
2016-10-02T13:20:25.617Z,70
2016-10-02T13:21:26.209Z,70
2016-10-02T13:22:26.955Z,80
2016-10-02T13:23:28.118Z,85
2016-10-02T13:24:29.318Z,95
2016-10-02T13:25:31.059Z,110
2016-10-02T13:26:31.777Z,130
2016-10-02T13:27:32.467Z,160
2016-10-02T13:28:33.161Z,205
2016-10-02T13:29:34.145Z,260
2016-10-02T13:30:34.811Z,335
2016-10-02T13:31:35.606Z,410
2016-10-02T13:32:36.931Z,430
2016-10-02T13:33:37.777Z,395
2016-10-02T13:34:38.685Z,335
2016-10-02T13:35:40.015Z,275
2016-10-02T13:36:40.669Z,225
2016-10-02T13:37:41.578Z,200
2016-10-02T13:38:42.344Z,190
2016-10-02T13:39:43.162Z,170
2016-10-02T13:40:44.468Z,140
2016-10-02T13:41:45.164Z,125
2016-10-02T13:42:45.978Z,130
2016-10-02T13:43:46.781Z,125
2016-10-02T13:44:47.717Z,125
2016-10-02T13:45:48.562Z,125
2016-10-02T13:46:49.269Z,120
2016-10-02T13:47:50.291Z,120
2016-10-02T13:48:50.993Z,125
2016-10-02T13:49:51.717Z,145
2016-10-02T13:50:52.414Z,165
2016-10-02T13:51:53.241Z,175
2016-10-02T13:52:54.249Z,175
2016-10-02T13:53:54.939Z,165
2016-10-02T13:54:55.667Z,165
2016-10-02T13:55:56.480Z,165
2016-10-02T13:56:57.151Z,170
2016-10-02T13:57:57.968Z,175
2016-10-02T13:58:58.789Z,180
2016-10-02T13:59:59.552Z,185
2016-10-02T14:01:00.420Z,195
2016-10-02T14:02:01.144Z,190
2016-10-02T14:03:02.082Z,180
2016-10-02T14:04:02.928Z,155
2016-10-02T14:05:03.658Z,140
2016-10-02T14:06:04.645Z,115
2016-10-02T14:07:05.317Z,95
2016-10-02T14:08:06.110Z,85
2016-10-02T14:09:06.849Z,80
2016-10-02T14:10:07.580Z,80
2016-10-02T14:11:08.282Z,85
2016-10-02T14:12:08.971Z,80
2016-10-02T14:13:09.664Z,80
2016-10-02T14:14:10.734Z,75
2016-10-02T14:15:11.390Z,75
2016-10-02T14:16:12.127Z,75
2016-10-02T14:17:12.827Z,65
2016-10-02T14:18:13.581Z,65
2016-10-02T14:19:14.393Z,60
2016-10-02T14:20:15.255Z,50
2016-10-02T14:21:16.216Z,50
2016-10-02T14:22:16.975Z,50